createdAt,value
2023-01-17T00:02:23.606Z,6.00
2023-01-17T00:05:10.344Z,6.50
2023-01-17T00:07:56.998Z,5.50
2023-01-17T00:10:28.629Z,4.25
2023-01-17T00:13:01.919Z,6.50
2023-01-17T00:15:31.967Z,7.75
2023-01-17T00:18:00.494Z,6.75
2023-01-17T00:20:50.198Z,9.00
2023-01-17T00:23:39.527Z,4.75
2023-01-17T00:26:14.100Z,8.00
2023-01-17T00:28:43.959Z,8.00
2023-01-17T00:31:14.391Z,10.75
2023-01-17T00:33:42.751Z,8.75
2023-01-17T00:36:12.029Z,8.25
2023-01-17T00:38:41.111Z,8.25
2023-01-17T00:41:12.286Z,11.00
2023-01-17T00:43:59.108Z,13.00
2023-01-17T00:46:46.023Z,11.00
2023-01-17T00:49:32.851Z,14.50
2023-01-17T00:52:20.431Z,10.50
2023-01-17T00:55:07.036Z,13.00
2023-01-17T00:57:53.788Z,13.75
2023-01-17T01:00:40.345Z,11.75
2023-01-17T01:03:31.858Z,14.50
2023-01-17T01:06:18.625Z,13.25
2023-01-17T01:09:05.186Z,12.50
2023-01-17T01:11:52.092Z,14.75
2023-01-17T01:14:38.715Z,14.00
2023-01-17T01:17:25.129Z,12.50
2023-01-17T01:20:11.646Z,12.00
2023-01-17T01:22:58.277Z,13.50
2023-01-17T01:25:44.884Z,9.75
2023-01-17T01:28:33.727Z,9.25
2023-01-17T01:31:24.828Z,6.25
2023-01-17T01:33:54.394Z,8.50
2023-01-17T01:36:23.006Z,6.75
2023-01-17T01:38:51.668Z,8.50
2023-01-17T01:41:20.035Z,7.00
2023-01-17T01:43:49.803Z,6.25
2023-01-17T01:46:38.140Z,6.00
2023-01-17T01:49:09.371Z,8.00
2023-01-17T01:51:48.432Z,5.00
2023-01-17T01:54:21.945Z,7.50
2023-01-17T01:56:53.895Z,6.50
2023-01-17T01:59:24.665Z,7.50
2023-01-17T02:01:56.301Z,7.75
2023-01-17T02:04:27.580Z,7.50
2023-01-17T02:07:04.731Z,7.00
2023-01-17T02:09:33.184Z,8.50
2023-01-17T02:12:02.412Z,6.25
2023-01-17T02:14:30.764Z,6.00
2023-01-17T02:17:25.121Z,6.75
2023-01-17T02:20:12.010Z,4.00
2023-01-17T02:22:52.371Z,5.25
2023-01-17T02:25:38.941Z,4.00
2023-01-17T02:28:36.459Z,4.50
2023-01-17T02:31:29.300Z,7.00
2023-01-17T02:34:26.790Z,4.50
2023-01-17T02:37:15.834Z,4.25
2023-01-17T02:39:53.402Z,5.00
2023-01-17T02:42:28.723Z,5.50
2023-01-17T02:44:57.046Z,3.75
2023-01-17T02:47:31.485Z,5.00
2023-01-17T02:50:08.697Z,5.75
2023-01-17T02:52:51.572Z,7.75
2023-01-17T02:55:42.017Z,3.75
2023-01-17T02:58:36.787Z,4.25
2023-01-17T03:01:31.288Z,5.25
2023-01-17T03:04:02.261Z,4.00
2023-01-17T03:06:45.295Z,6.25
2023-01-17T03:09:16.778Z,4.50
2023-01-17T03:11:45.604Z,6.50
2023-01-17T03:14:14.030Z,4.50
2023-01-17T03:16:42.988Z,7.75
2023-01-17T03:19:11.673Z,6.00
2023-01-17T03:21:39.988Z,4.75
2023-01-17T03:24:08.487Z,6.25
2023-01-17T03:26:36.801Z,4.75
2023-01-17T03:29:05.148Z,7.00
2023-01-17T03:31:33.472Z,3.75
2023-01-17T03:34:01.757Z,5.00
2023-01-17T03:36:30.160Z,6.25
2023-01-17T03:38:58.473Z,5.00
2023-01-17T03:41:27.171Z,5.75
2023-01-17T03:43:55.626Z,5.25
2023-01-17T03:46:29.611Z,4.00
2023-01-17T03:48:57.919Z,6.50
2023-01-17T03:51:26.253Z,4.50
2023-01-17T03:53:54.755Z,4.25
2023-01-17T03:56:23.240Z,4.00
2023-01-17T03:58:52.454Z,4.75
2023-01-17T04:01:21.064Z,7.00
2023-01-17T04:03:49.488Z,5.00
2023-01-17T04:06:17.784Z,6.00
2023-01-17T04:08:46.088Z,5.00
2023-01-17T04:11:14.402Z,5.00
2023-01-17T04:13:42.747Z,5.00
2023-01-17T04:16:17.530Z,4.00
2023-01-17T04:18:46.190Z,5.00
2023-01-17T04:21:14.467Z,6.00
2023-01-17T04:23:42.830Z,9.25
2023-01-17T04:26:13.605Z,6.50
2023-01-17T04:28:42.191Z,6.00
2023-01-17T04:31:18.133Z,6.50
2023-01-17T04:33:46.502Z,6.00
2023-01-17T04:36:15.022Z,9.50
2023-01-17T04:38:43.999Z,8.00
2023-01-17T04:41:12.333Z,6.25
2023-01-17T04:43:40.744Z,6.50
2023-01-17T04:46:11.794Z,7.00
2023-01-17T04:48:40.120Z,8.25
2023-01-17T04:51:08.528Z,9.00
2023-01-17T04:53:36.872Z,7.00
2023-01-17T04:56:05.761Z,7.75
2023-01-17T04:58:34.396Z,7.00
2023-01-17T05:01:05.164Z,6.50
2023-01-17T05:03:33.933Z,5.50
2023-01-17T05:06:02.828Z,5.75
2023-01-17T05:08:31.271Z,7.00
2023-01-17T05:10:59.567Z,7.75
2023-01-17T05:13:27.882Z,6.75
2023-01-17T05:15:58.699Z,6.75
2023-01-17T05:18:27.144Z,6.25
2023-01-17T05:20:55.529Z,8.50
2023-01-17T05:23:23.848Z,6.75
2023-01-17T05:25:52.142Z,8.75
2023-01-17T05:28:20.670Z,9.00
2023-01-17T05:30:49.078Z,6.50
2023-01-17T05:33:17.438Z,7.00
2023-01-17T05:35:45.774Z,8.00
2023-01-17T05:38:14.104Z,6.75
2023-01-17T05:40:42.454Z,8.00
2023-01-17T05:43:10.885Z,7.50
2023-01-17T05:45:39.210Z,7.00
2023-01-17T05:48:07.672Z,8.00
2023-01-17T05:50:38.019Z,9.00
2023-01-17T05:53:12.856Z,6.50
2023-01-17T05:55:42.062Z,7.25
2023-01-17T05:58:15.972Z,9.00
2023-01-17T06:00:45.302Z,7.00
2023-01-17T06:03:14.102Z,10.00
2023-01-17T06:05:42.793Z,8.00
2023-01-17T06:08:11.987Z,7.00
2023-01-17T06:10:40.868Z,9.50
2023-01-17T06:13:13.493Z,7.00
2023-01-17T06:15:42.025Z,7.50
2023-01-17T06:18:13.438Z,6.25
2023-01-17T06:20:42.370Z,8.00
2023-01-17T06:23:14.420Z,9.00
2023-01-17T06:25:45.526Z,8.00
2023-01-17T06:28:16.567Z,9.00
2023-01-17T06:33:27.276Z,10.25
2023-01-17T06:35:55.632Z,6.25
2023-01-17T06:38:24.427Z,7.25
2023-01-17T06:40:52.798Z,6.00
2023-01-17T06:43:21.126Z,9.00
2023-01-17T06:45:51.206Z,7.00
2023-01-17T06:48:19.692Z,8.25
2023-01-17T06:50:49.206Z,7.50
2023-01-17T06:53:17.580Z,8.00
2023-01-17T06:55:45.945Z,6.00
2023-01-17T06:58:14.358Z,7.75
2023-01-17T07:00:42.823Z,7.00
2023-01-17T07:03:21.323Z,6.00
2023-01-17T07:05:50.008Z,5.25
2023-01-17T07:08:19.343Z,5.75
2023-01-17T07:10:48.986Z,8.25
2023-01-17T07:13:17.750Z,5.50
2023-01-17T07:15:46.102Z,9.50
2023-01-17T07:18:14.438Z,9.00
2023-01-17T07:20:44.950Z,6.00
2023-01-17T07:23:13.763Z,5.75
2023-01-17T07:25:42.245Z,5.50
2023-01-17T07:28:10.975Z,7.00
2023-01-17T07:30:39.309Z,7.50
2023-01-17T07:33:07.946Z,6.25
2023-01-17T07:35:37.393Z,6.00
2023-01-17T07:38:14.847Z,6.75
2023-01-17T07:40:43.322Z,9.75
2023-01-17T07:43:15.095Z,10.00
2023-01-17T07:45:52.172Z,9.00
2023-01-17T07:48:22.703Z,8.00
2023-01-17T07:50:58.674Z,6.25
2023-01-17T07:53:29.799Z,7.00
2023-01-17T07:56:03.689Z,6.00
2023-01-17T07:58:33.117Z,6.00
2023-01-17T08:01:13.204Z,5.00
2023-01-17T08:03:42.033Z,6.25
2023-01-17T08:06:23.014Z,6.75
2023-01-17T08:08:51.682Z,6.00
2023-01-17T08:11:20.074Z,4.25
2023-01-17T08:13:48.455Z,9.75
2023-01-17T08:16:16.877Z,6.75
2023-01-17T08:18:45.212Z,8.00
2023-01-17T08:21:17.800Z,5.50
2023-01-17T08:23:50.607Z,6.00
2023-01-17T08:26:23.908Z,8.00
2023-01-17T08:29:03.965Z,7.50
2023-01-17T08:31:34.476Z,5.00
2023-01-17T08:34:02.803Z,5.00
2023-01-17T08:36:32.140Z,5.25
2023-01-17T08:39:00.534Z,6.50
2023-01-17T08:41:28.982Z,7.00
2023-01-17T08:43:57.371Z,5.50
2023-01-17T08:46:25.824Z,6.00
2023-01-17T08:48:59.902Z,5.25
2023-01-17T08:51:28.992Z,6.00
2023-01-17T08:53:57.809Z,7.00
2023-01-17T08:56:27.818Z,7.00
2023-01-17T08:58:56.140Z,5.25
2023-01-17T09:01:24.591Z,5.25
2023-01-17T09:03:53.050Z,8.00
2023-01-17T09:06:21.578Z,6.50
2023-01-17T09:08:50.585Z,6.50
2023-01-17T09:11:19.198Z,4.75
2023-01-17T09:13:47.512Z,4.00
2023-01-17T09:16:16.018Z,6.25
2023-01-17T09:18:44.381Z,6.00
2023-01-17T09:21:21.604Z,5.75
2023-01-17T09:23:50.020Z,6.25
2023-01-17T09:26:24.706Z,4.25
2023-01-17T09:28:53.829Z,5.75
2023-01-17T09:31:23.525Z,4.00
2023-01-17T09:33:53.234Z,5.75
2023-01-17T09:36:23.052Z,4.00
2023-01-17T09:38:56.494Z,5.75
2023-01-17T09:41:31.169Z,5.25
2023-01-17T09:44:37.641Z,6.00
2023-01-17T09:47:37.993Z,7.75
2023-01-17T09:50:19.676Z,5.25
2023-01-17T09:52:48.664Z,5.00
2023-01-17T09:55:18.887Z,6.50
2023-01-17T09:58:20.792Z,7.00
2023-01-17T10:00:58.578Z,9.00
2023-01-17T10:03:44.158Z,10.75
2023-01-17T10:06:44.288Z,7.50
2023-01-17T10:09:46.713Z,6.50
2023-01-17T10:12:20.738Z,7.50
2023-01-17T10:15:13.644Z,8.00
2023-01-17T10:17:53.533Z,7.50
2023-01-17T10:20:42.606Z,7.25
2023-01-17T10:23:35.509Z,7.25
2023-01-17T10:26:16.946Z,7.00
2023-01-17T10:28:52.169Z,6.25
2023-01-17T10:31:29.344Z,5.50
2023-01-17T10:34:04.577Z,6.00
2023-01-17T10:36:39.834Z,5.25
2023-01-17T10:39:23.807Z,7.25
2023-01-17T10:42:08.917Z,6.25
2023-01-17T10:44:52.143Z,9.25
2023-01-17T10:47:23.485Z,6.00
2023-01-17T10:49:58.533Z,8.75
2023-01-17T10:52:54.188Z,7.00
2023-01-17T10:55:25.489Z,8.25
2023-01-17T10:57:55.491Z,8.00
2023-01-17T11:00:26.970Z,6.75
2023-01-17T11:02:55.747Z,7.50
2023-01-17T11:05:30.566Z,7.50
2023-01-17T11:08:16.945Z,9.25
2023-01-17T11:10:50.007Z,6.25
2023-01-17T11:13:29.459Z,8.00
2023-01-17T11:16:06.778Z,7.75
2023-01-17T11:18:40.531Z,9.75
2023-01-17T11:21:16.058Z,8.00
2023-01-17T11:23:50.518Z,6.75
2023-01-17T11:26:48.944Z,7.25
2023-01-17T11:29:29.334Z,9.00
2023-01-17T11:31:57.696Z,11.25
2023-01-17T11:34:33.975Z,7.00
2023-01-17T11:37:23.746Z,10.00
2023-01-17T11:39:52.154Z,7.75
2023-01-17T11:42:38.827Z,7.00
2023-01-17T11:45:28.300Z,7.50
2023-01-17T11:48:14.008Z,11.75
2023-01-17T11:50:44.948Z,8.00
2023-01-17T11:53:29.258Z,12.00
2023-01-17T11:56:04.925Z,8.75
2023-01-17T11:58:36.117Z,9.50
2023-01-17T12:01:30.937Z,9.25
2023-01-17T12:04:46.701Z,9.25
2023-01-17T12:07:29.934Z,10.75
2023-01-17T12:10:11.170Z,8.25
2023-01-17T12:13:22.645Z,8.25
2023-01-17T12:15:57.070Z,10.00
2023-01-17T12:18:40.077Z,11.00
2023-01-17T12:21:08.328Z,10.25
2023-01-17T12:23:58.127Z,6.75
2023-01-17T12:26:41.443Z,11.25
2023-01-17T12:29:25.093Z,9.75
2023-01-17T12:32:35.274Z,13.00
2023-01-17T12:35:32.950Z,12.50
2023-01-17T12:38:18.077Z,14.50
2023-01-17T12:41:03.867Z,10.75
2023-01-17T12:43:39.158Z,9.00
2023-01-17T12:46:14.688Z,9.00
2023-01-17T12:48:43.157Z,9.50
2023-01-17T12:51:28.502Z,11.75
2023-01-17T12:54:19.906Z,11.25
2023-01-17T12:56:55.316Z,10.00
2023-01-17T12:59:48.945Z,9.75
2023-01-17T13:02:37.184Z,10.50
2023-01-17T13:05:16.178Z,9.00
2023-01-17T13:08:02.511Z,14.50
2023-01-17T13:10:37.089Z,15.00
2023-01-17T13:13:23.292Z,11.00
2023-01-17T13:16:16.435Z,16.75
2023-01-17T13:18:52.790Z,16.00
2023-01-17T13:21:31.355Z,15.25
2023-01-17T13:24:08.689Z,14.50
2023-01-17T13:26:52.434Z,16.75
2023-01-17T13:29:48.606Z,19.50
2023-01-17T13:32:36.231Z,16.75
2023-01-17T13:35:38.085Z,13.25
2023-01-17T13:38:26.589Z,14.75
2023-01-17T13:41:09.276Z,15.50
2023-01-17T13:43:41.329Z,15.50
2023-01-17T13:46:09.629Z,11.25
2023-01-17T13:48:41.633Z,12.75
2023-01-17T13:51:11.810Z,18.50
2023-01-17T13:53:40.151Z,15.25
2023-01-17T13:56:16.084Z,14.75
2023-01-17T13:58:55.564Z,14.00
2023-01-17T14:01:24.009Z,15.50
2023-01-17T14:03:52.559Z,16.00
2023-01-17T14:06:49.996Z,13.00
2023-01-17T14:09:52.763Z,14.00
2023-01-17T14:12:21.036Z,17.50
2023-01-17T14:14:52.936Z,16.50
2023-01-17T14:17:26.360Z,15.00
2023-01-17T14:19:56.869Z,12.00
2023-01-17T14:22:42.820Z,14.00
2023-01-17T14:25:11.135Z,16.50
2023-01-17T14:28:04.843Z,13.50
2023-01-17T14:30:39.280Z,13.00
2023-01-17T14:33:20.534Z,14.25
2023-01-17T14:36:02.111Z,15.50
2023-01-17T14:38:35.213Z,17.50
2023-01-17T14:41:08.776Z,16.50
2023-01-17T14:43:41.996Z,15.50
2023-01-17T14:46:28.710Z,20.25
2023-01-17T14:49:06.714Z,15.00
2023-01-17T14:51:36.411Z,17.50
2023-01-17T14:54:08.636Z,17.75
2023-01-17T14:56:36.922Z,18.25
2023-01-17T14:59:15.735Z,16.75
2023-01-17T15:01:55.299Z,19.00
2023-01-17T15:04:36.492Z,19.00
2023-01-17T15:07:05.308Z,18.75
2023-01-17T15:09:39.629Z,14.00
2023-01-17T15:12:15.437Z,13.75
2023-01-17T15:14:47.522Z,14.00
2023-01-17T15:17:21.770Z,17.25
2023-01-17T15:19:56.819Z,14.00
2023-01-17T15:22:27.863Z,12.00
2023-01-17T15:24:56.948Z,16.00
2023-01-17T15:27:25.950Z,17.00
2023-01-17T15:29:55.246Z,15.00
2023-01-17T15:32:32.054Z,14.75
2023-01-17T15:35:03.425Z,11.50
2023-01-17T15:37:37.428Z,14.25
2023-01-17T15:40:24.183Z,10.25
2023-01-17T15:42:54.526Z,12.75
2023-01-17T15:45:30.055Z,13.00
2023-01-17T15:48:00.164Z,11.25
2023-01-17T15:50:36.590Z,12.75
2023-01-17T15:53:27.461Z,11.00
2023-01-17T15:55:55.815Z,10.00
2023-01-17T15:58:30.437Z,8.75
2023-01-17T16:00:59.079Z,11.25
2023-01-17T16:03:32.224Z,11.25
2023-01-17T16:06:03.885Z,10.00
2023-01-17T16:08:40.656Z,8.00
2023-01-17T16:11:12.490Z,10.00
2023-01-17T16:13:43.115Z,8.00
2023-01-17T16:16:15.660Z,8.25
2023-01-17T16:18:44.975Z,8.75
2023-01-17T16:21:32.744Z,7.75
2023-01-17T16:24:01.879Z,7.75
2023-01-17T16:26:30.225Z,6.50
2023-01-17T16:28:58.694Z,6.75
2023-01-17T16:31:31.154Z,7.75
2023-01-17T16:34:00.285Z,7.00
2023-01-17T16:36:28.738Z,8.00
2023-01-17T16:38:57.138Z,9.00
2023-01-17T16:41:27.559Z,7.00
2023-01-17T16:44:03.139Z,9.75
2023-01-17T16:46:31.921Z,6.00
2023-01-17T16:49:03.351Z,5.75
2023-01-17T16:51:31.732Z,6.00
2023-01-17T16:54:00.514Z,7.00
2023-01-17T16:56:28.861Z,4.00
2023-01-17T16:58:57.625Z,5.75
2023-01-17T17:01:26.249Z,5.25
2023-01-17T17:03:54.945Z,5.25
2023-01-17T17:06:23.309Z,4.00
2023-01-17T17:08:51.704Z,6.75
2023-01-17T17:11:24.050Z,6.00
2023-01-17T17:13:53.417Z,4.00
2023-01-17T17:16:27.388Z,5.00
2023-01-17T17:18:58.101Z,6.00
2023-01-17T17:21:27.715Z,6.75
2023-01-17T17:23:58.906Z,4.50
2023-01-17T17:26:31.803Z,4.00
2023-01-17T17:29:00.094Z,3.00
2023-01-17T17:31:29.168Z,4.25
2023-01-17T17:34:02.654Z,5.00
2023-01-17T17:36:31.813Z,3.75
2023-01-17T17:39:00.685Z,3.00
2023-01-17T17:41:34.561Z,6.75
2023-01-17T17:44:04.586Z,4.00
2023-01-17T17:46:34.699Z,3.25
2023-01-17T17:49:03.407Z,4.25
2023-01-17T17:51:40.490Z,4.00
2023-01-17T17:54:11.727Z,5.75
2023-01-17T17:56:41.167Z,4.00
2023-01-17T17:59:11.147Z,3.00
2023-01-17T18:01:39.754Z,4.25
2023-01-17T18:04:09.215Z,4.25
2023-01-17T18:06:39.458Z,6.75
2023-01-17T18:09:09.580Z,3.50
2023-01-17T18:11:40.402Z,4.25
2023-01-17T18:14:13.349Z,4.50
2023-01-17T18:16:43.984Z,4.00
2023-01-17T18:19:25.677Z,4.00
2023-01-17T18:21:54.741Z,4.25
2023-01-17T18:24:25.130Z,6.50
2023-01-17T18:26:58.532Z,4.25
2023-01-17T18:29:28.348Z,3.00
2023-01-17T18:31:57.337Z,5.25
2023-01-17T18:34:30.084Z,4.00
2023-01-17T18:36:59.458Z,4.25
2023-01-17T18:39:30.108Z,5.00
2023-01-17T18:41:58.549Z,4.75
2023-01-17T18:44:28.315Z,3.00
2023-01-17T18:47:00.398Z,2.25
2023-01-17T18:49:29.971Z,4.25
2023-01-17T18:51:58.249Z,2.00
2023-01-17T18:54:28.727Z,4.00
2023-01-17T18:56:57.209Z,3.75
2023-01-17T18:59:26.726Z,5.00
2023-01-17T19:01:55.066Z,3.00
2023-01-17T19:04:23.531Z,3.25
2023-01-17T19:06:52.155Z,4.25
2023-01-17T19:09:20.490Z,3.25
2023-01-17T19:11:48.795Z,3.75
2023-01-17T19:14:17.372Z,3.50
2023-01-17T19:16:46.102Z,3.00
2023-01-17T19:19:16.923Z,4.00
2023-01-17T19:21:45.652Z,3.75
2023-01-17T19:24:14.099Z,3.50
2023-01-17T19:26:43.749Z,3.50
2023-01-17T19:29:13.070Z,3.75
2023-01-17T19:31:45.336Z,3.75
2023-01-17T19:34:15.551Z,3.50
2023-01-17T19:36:43.985Z,4.00
2023-01-17T19:39:12.616Z,4.00
2023-01-17T19:41:45.991Z,5.00
2023-01-17T19:44:15.850Z,3.00
2023-01-17T19:46:46.980Z,2.00
2023-01-17T19:49:17.233Z,3.00
2023-01-17T19:51:45.574Z,3.25
2023-01-17T19:54:16.072Z,2.50
2023-01-17T19:56:44.413Z,4.50
2023-01-17T19:59:14.976Z,2.00
2023-01-17T20:01:43.474Z,2.50
2023-01-17T20:04:13.656Z,3.00
2023-01-17T20:06:41.959Z,3.00
2023-01-17T20:09:10.280Z,3.00
2023-01-17T20:11:38.915Z,2.75
2023-01-17T20:14:07.258Z,2.00
2023-01-17T20:16:38.456Z,3.00
2023-01-17T20:19:07.059Z,3.00
2023-01-17T20:21:35.421Z,3.00
2023-01-17T20:24:06.733Z,3.75
2023-01-17T20:26:36.886Z,2.75
2023-01-17T20:29:11.113Z,4.50
2023-01-17T20:31:41.554Z,2.75
2023-01-17T20:34:12.943Z,3.75
2023-01-17T20:36:42.929Z,2.75
2023-01-17T20:39:14.787Z,3.00
2023-01-17T20:41:46.596Z,3.00
2023-01-17T20:44:16.666Z,2.25
2023-01-17T20:46:46.390Z,2.75
2023-01-17T20:49:20.345Z,3.00
2023-01-17T20:51:49.240Z,2.75
2023-01-17T20:54:20.101Z,3.00
2023-01-17T20:56:49.143Z,3.25
2023-01-17T20:59:23.208Z,3.00
2023-01-17T21:01:52.854Z,3.00
2023-01-17T21:04:26.570Z,3.25
2023-01-17T21:06:55.605Z,2.50
2023-01-17T21:09:24.339Z,1.75
2023-01-17T21:11:53.149Z,2.75
2023-01-17T21:14:22.656Z,3.25
2023-01-17T21:16:51.343Z,3.00
2023-01-17T21:19:21.408Z,2.50
2023-01-17T21:21:50.958Z,4.50
2023-01-17T21:24:20.502Z,1.75
2023-01-17T21:26:50.553Z,3.00
2023-01-17T21:29:18.937Z,2.50
2023-01-17T21:31:47.378Z,2.75
2023-01-17T21:34:16.185Z,3.25
2023-01-17T21:36:44.930Z,3.50
2023-01-17T21:39:16.617Z,2.00
2023-01-17T21:41:47.628Z,3.50
2023-01-17T21:44:21.880Z,3.00
2023-01-17T21:46:55.838Z,2.75
2023-01-17T21:49:25.104Z,2.00
2023-01-17T21:51:56.153Z,2.00
2023-01-17T21:54:45.346Z,2.75
2023-01-17T21:57:38.078Z,3.25
2023-01-17T22:00:08.527Z,2.75
2023-01-17T22:02:36.891Z,2.00
2023-01-17T22:05:05.417Z,2.75
2023-01-17T22:07:33.693Z,2.75
2023-01-17T22:10:02.393Z,3.00
2023-01-17T22:12:30.707Z,3.00
2023-01-17T22:14:59.006Z,4.75
2023-01-17T22:17:27.313Z,3.00
2023-01-17T22:19:55.598Z,3.00
2023-01-17T22:22:24.047Z,3.00
2023-01-17T22:24:52.399Z,3.00
2023-01-17T22:27:21.401Z,2.00
2023-01-17T22:29:49.708Z,5.00
2023-01-17T22:32:18.001Z,2.50
2023-01-17T22:34:46.387Z,3.00
2023-01-17T22:37:15.725Z,2.50
2023-01-17T22:39:44.502Z,3.25
2023-01-17T22:42:14.497Z,2.75
2023-01-17T22:44:43.198Z,3.75
2023-01-17T22:47:11.925Z,2.00
2023-01-17T22:49:41.442Z,3.00
2023-01-17T22:52:10.780Z,3.00
2023-01-17T22:54:39.642Z,4.25
2023-01-17T22:57:07.980Z,3.00
2023-01-17T22:59:36.687Z,4.00
2023-01-17T23:02:05.051Z,3.25
2023-01-17T23:04:33.347Z,3.00
2023-01-17T23:07:01.700Z,5.00
2023-01-17T23:09:30.048Z,5.00
2023-01-17T23:11:58.384Z,4.25
2023-01-17T23:14:29.786Z,3.75
2023-01-17T23:17:22.415Z,6.75
2023-01-17T23:19:53.410Z,5.00
2023-01-17T23:22:27.800Z,6.00
2023-01-17T23:24:58.714Z,5.00
2023-01-17T23:27:48.396Z,6.00
2023-01-17T23:30:19.611Z,5.25
2023-01-17T23:32:54.519Z,6.25
2023-01-17T23:35:25.824Z,7.75
2023-01-17T23:38:12.634Z,6.50
2023-01-17T23:40:41.580Z,6.25
2023-01-17T23:43:25.490Z,5.75
2023-01-17T23:45:55.690Z,5.50
2023-01-17T23:48:27.215Z,6.00
2023-01-17T23:51:01.165Z,7.00
2023-01-17T23:53:29.904Z,6.00
2023-01-17T23:56:00.598Z,5.00
2023-01-17T23:58:29.352Z,7.25
